Time;durP1;ratioP1;P1;durP2;ratioP2;P2;SDS_P1;SDS_P2;PMS_P1;PMS_P2;Temp;Humidity;BMP_temperature;BMP_pressure;BME280_temperature;BME280_humidity;BME280_pressure;Samples;Min_cycle;Max_cycle;Signal;HPM_P1;HPM_P2
2023/12/03 00:00:09;;;;;;;6.10;3.83;;;-0.40;99.80;;;;;;5080214;28;20481;-71
2023/12/03 00:02:35;;;;;;;;;;;-0.30;99.90;;;;;;5080682;28;20070;-70
2023/12/03 00:05:02;;;;;;;8.40;4.20;;;-0.40;99.60;;;;;;5080223;28;20073;-71
2023/12/03 00:07:28;;;;;;;11.68;6.38;;;-0.40;99.60;;;;;;5080441;28;20052;-71
2023/12/03 00:09:55;;;;;;;13.55;6.10;;;-0.70;99.90;;;;;;5080354;28;20013;-70
2023/12/03 00:12:21;;;;;;;7.72;3.88;;;-0.40;99.90;;;;;;5080420;28;20048;-70
2023/12/03 00:14:47;;;;;;;9.40;5.25;;;-0.50;99.90;;;;;;5080390;28;20024;-69
2023/12/03 00:17:12;;;;;;;10.73;5.97;;;-0.50;99.90;;;;;;5080432;28;20391;-70
2023/12/03 00:19:39;;;;;;;12.40;6.05;;;-0.40;99.40;;;;;;5080275;28;20077;-70
2023/12/03 00:22:07;;;;;;;9.18;4.22;;;-0.30;99.90;;;;;;5080039;28;20040;-71
2023/12/03 00:24:33;;;;;;;13.80;6.05;;;;;;;;;;5080415;28;20028;-70
2023/12/03 00:27:02;;;;;;;8.80;4.55;;;-0.50;99.90;;;;;;5080319;28;20024;-70
2023/12/03 00:29:28;;;;;;;10.77;5.25;;;;;;;;;;5080453;28;20048;-72
2023/12/03 00:31:54;;;;;;;8.18;4.32;;;-0.30;99.90;;;;;;5078842;28;20031;-71
2023/12/03 00:34:20;;;;;;;9.10;5.63;;;-0.50;99.90;;;;;;5080212;28;20204;-71
2023/12/03 00:36:45;;;;;;;9.65;3.88;;;-0.40;99.90;;;;;;5080245;28;20024;-71
2023/12/03 00:39:11;;;;;;;13.65;4.68;;;;;;;;;;5078958;28;20327;-70
2023/12/03 00:41:38;;;;;;;11.05;5.22;;;;;;;;;;5083838;28;20017;-70
2023/12/03 00:44:04;;;;;;;12.30;6.45;;;-0.50;99.80;;;;;;5084310;28;20032;-68
2023/12/03 00:46:30;;;;;;;8.73;4.80;;;-0.50;99.90;;;;;;5084029;28;20308;-70
2023/12/03 00:48:55;;;;;;;9.05;5.57;;;-0.50;99.90;;;;;;5084405;28;20048;-71
2023/12/03 00:51:21;;;;;;;9.93;5.50;;;-0.50;99.90;;;;;;5084147;28;20216;-71
2023/12/03 00:53:47;;;;;;;13.13;7.05;;;;;;;;;;5084295;28;20075;-70
2023/12/03 00:56:13;;;;;;;12.75;7.30;;;;;;;;;;5084086;28;20036;-70
2023/12/03 00:58:39;;;;;;;9.23;5.40;;;;;;;;;;5083870;28;20040;-70
2023/12/03 01:01:05;;;;;;;16.00;8.38;;;;;;;;;;5084067;28;20021;-70
2023/12/03 01:03:33;;;;;;;11.45;7.38;;;-0.50;99.90;;;;;;5083661;28;20027;-70
2023/12/03 01:05:59;;;;;;;10.07;4.53;;;;;;;;;;5083869;28;20317;-70
2023/12/03 01:08:25;;;;;;;13.73;7.28;;;;;;;;;;5083776;28;20023;-69
2023/12/03 01:10:51;;;;;;;14.15;7.35;;;-0.60;99.90;;;;;;5083521;28;20020;-69
2023/12/03 01:13:16;;;;;;;11.23;5.55;;;-0.80;99.90;;;;;;5083488;28;20107;-70
2023/12/03 01:15:44;;;;;;;12.38;7.72;;;-0.70;99.00;;;;;;5083525;28;20096;-70
2023/12/03 01:18:10;;;;;;;15.00;7.50;;;-0.90;99.90;;;;;;5083443;28;20037;-70
2023/12/03 01:20:36;;;;;;;9.38;4.75;;;-0.70;99.90;;;;;;5083492;28;20040;-70
2023/12/03 01:23:02;;;;;;;13.73;7.82;;;;;;;;;;5083679;28;20040;-70
2023/12/03 01:25:28;;;;;;;13.38;6.32;;;-0.60;99.90;;;;;;5083492;28;20028;-71
2023/12/03 01:27:54;;;;;;;13.60;7.00;;;;;;;;;;5083445;28;20338;-70
2023/12/03 01:30:20;;;;;;;8.88;3.92;;;;;;;;;;5083318;28;20035;-70
2023/12/03 01:32:46;;;;;;;11.40;6.32;;;-0.70;99.90;;;;;;5083144;28;20099;-71
2023/12/03 01:35:12;;;;;;;10.10;5.32;;;-0.80;99.90;;;;;;5083315;28;20027;-70
2023/12/03 01:37:38;;;;;;;14.13;7.22;;;;;;;;;;5083281;28;20036;-69
2023/12/03 01:40:04;;;;;;;10.55;5.93;;;-0.80;99.90;;;;;;5083227;28;20327;-69
2023/12/03 01:42:31;;;;;;;14.05;7.57;;;;;;;;;;5083193;28;20059;-69
2023/12/03 01:44:56;;;;;;;12.70;7.95;;;-0.80;99.90;;;;;;5083180;28;20150;-69
2023/12/03 01:47:22;;;;;;;15.68;7.55;;;-0.80;99.90;;;;;;5083028;28;20225;-69
2023/12/03 01:49:48;;;;;;;11.18;5.22;;;;;;;;;;5083024;28;20028;-69
2023/12/03 01:52:14;;;;;;;9.10;5.38;;;-0.80;99.90;;;;;;5081580;28;20268;-69
2023/12/03 01:54:43;;;;;;;14.85;7.80;;;-0.60;99.90;;;;;;5082816;28;20037;-69
2023/12/03 01:57:10;;;;;;;10.90;6.45;;;;;;;;;;5082779;28;20324;-70
2023/12/03 01:59:36;;;;;;;11.15;7.30;;;-0.70;98.30;;;;;;5082729;28;20316;-69
2023/12/03 02:02:05;;;;;;;10.63;5.75;;;-0.80;98.50;;;;;;5081410;28;20040;-69
2023/12/03 02:04:31;;;;;;;12.90;6.63;;;;;;;;;;5082645;28;20043;-72
2023/12/03 02:06:56;;;;;;;8.32;5.63;;;-0.90;99.90;;;;;;5082589;28;20023;-68
2023/12/03 02:09:23;;;;;;;14.32;7.18;;;-0.90;98.10;;;;;;5082578;28;20044;-70
2023/12/03 02:11:49;;;;;;;10.40;5.68;;;-0.90;99.90;;;;;;5082545;28;20033;-72
2023/12/03 02:14:15;;;;;;;10.20;6.50;;;;;;;;;;5082436;28;20327;-69
2023/12/03 02:16:45;;;;;;;7.55;4.65;;;-0.80;99.90;;;;;;5082538;28;20025;-69
2023/12/03 02:19:11;;;;;;;6.03;3.63;;;;;;;;;;5082454;28;20032;-70
2023/12/03 02:21:37;;;;;;;11.43;6.25;;;;;;;;;;5081080;28;20363;-71
2023/12/03 02:24:03;;;;;;;13.05;7.47;;;;;;;;;;5082194;28;20232;-70
2023/12/03 02:26:29;;;;;;;6.93;4.32;;;;;;;;;;5082517;28;20044;-69
2023/12/03 02:28:55;;;;;;;9.05;5.50;;;-1.00;99.90;;;;;;5082405;28;20092;-69
2023/12/03 02:31:21;;;;;;;14.73;7.03;;;;;;;;;;5082083;28;20343;-70
2023/12/03 02:34:10;;;;;;;8.98;5.43;;;-1.30;99.90;;;;;;5082159;28;20040;-70
2023/12/03 02:36:37;;;;;;;7.25;4.55;;;-1.20;98.30;;;;;;5082269;28;20059;-70
2023/12/03 02:39:03;;;;;;;14.13;7.60;;;;;;;;;;5082181;28;20036;-69
2023/12/03 02:41:29;;;;;;;13.25;7.30;;;-1.20;99.90;;;;;;5082032;28;20021;-69
2023/12/03 02:43:55;;;;;;;8.95;5.20;;;;;;;;;;5081881;28;20035;-70
2023/12/03 02:46:21;;;;;;;11.13;6.05;;;;;;;;;;5082008;28;20029;-70
2023/12/03 02:48:47;;;;;;;11.18;6.10;;;-1.20;99.90;;;;;;5080687;28;20224;-69
2023/12/03 02:51:13;;;;;;;13.95;7.95;;;;;;;;;;5081802;28;20028;-70
2023/12/03 02:53:39;;;;;;;7.47;4.10;;;-1.00;99.90;;;;;;5081867;28;20197;-69
2023/12/03 02:56:06;;;;;;;8.38;4.88;;;-1.20;98.00;;;;;;5081607;28;20036;-69
2023/12/03 02:58:32;;;;;;;9.35;5.35;;;-1.20;99.90;;;;;;5081776;28;20137;-69
2023/12/03 03:00:58;;;;;;;11.35;6.20;;;;;;;;;;5081662;28;20088;-69
2023/12/03 03:03:24;;;;;;;10.02;6.30;;;;;;;;;;5081520;28;20096;-69
2023/12/03 03:05:50;;;;;;;8.63;4.60;;;;;;;;;;5081383;28;20024;-68
2023/12/03 03:08:16;;;;;;;11.00;5.88;;;;;;;;;;5081322;28;20248;-70
2023/12/03 03:10:41;;;;;;;9.43;4.90;;;-1.10;99.90;;;;;;5081336;28;20039;-68
2023/12/03 03:13:08;;;;;;;8.23;5.10;;;;;;;;;;5081230;28;20047;-68
2023/12/03 03:15:34;;;;;;;7.75;4.18;;;-1.30;99.90;;;;;;5081185;28;20016;-69
2023/12/03 03:18:00;;;;;;;10.27;4.95;;;;;;;;;;5081101;28;20224;-70
2023/12/03 03:20:26;;;;;;;9.82;5.20;;;-1.30;99.90;;;;;;5080947;28;20016;-71
2023/12/03 03:22:52;;;;;;;10.63;5.68;;;;;;;;;;5081386;28;20036;-69
2023/12/03 03:25:18;;;;;;;4.97;2.88;;;;;;;;;;5081317;28;20063;-70
2023/12/03 03:27:44;;;;;;;8.88;4.90;;;-1.30;99.90;;;;;;5081453;28;20192;-70
2023/12/03 03:30:10;;;;;;;10.18;6.03;;;-1.20;99.90;;;;;;5081252;28;20025;-70
2023/12/03 03:32:36;;;;;;;6.22;4.03;;;-1.30;99.90;;;;;;5081088;28;20036;-71
2023/12/03 03:35:05;;;;;;;8.45;5.32;;;-1.40;99.90;;;;;;5081294;28;20056;-71
2023/12/03 03:37:31;;;;;;;7.95;4.82;;;;;;;;;;5081205;28;20098;-71
2023/12/03 03:39:57;;;;;;;8.00;4.45;;;;;;;;;;5081149;28;20028;-72
2023/12/03 03:42:23;;;;;;;9.73;5.28;;;;;;;;;;5080906;28;20086;-71
2023/12/03 03:44:49;;;;;;;9.70;5.10;;;-1.20;99.90;;;;;;5081089;28;20016;-71
2023/12/03 03:47:15;;;;;;;6.65;3.63;;;-1.30;99.90;;;;;;5081334;28;20099;-72
2023/12/03 03:49:41;;;;;;;8.68;3.92;;;;;;;;;;5080862;28;20024;-71
2023/12/03 03:52:07;;;;;;;6.00;3.63;;;-1.40;99.90;;;;;;5081313;28;20063;-70
2023/12/03 03:54:33;;;;;;;9.95;4.80;;;;;;;;;;5081136;28;20091;-70
2023/12/03 03:56:59;;;;;;;7.13;4.20;;;-1.40;99.90;;;;;;5080848;28;20024;-70
2023/12/03 03:59:25;;;;;;;6.30;4.15;;;-1.50;94.80;;;;;;5080795;28;20315;-70
2023/12/03 04:01:51;;;;;;;7.38;4.38;;;;;;;;;;5080477;28;20095;-70
2023/12/03 04:04:17;;;;;;;8.48;4.60;;;-1.40;99.90;;;;;;5080654;28;20016;-71
2023/12/03 04:06:44;;;;;;;9.25;5.28;;;-1.50;94.50;;;;;;5080736;28;20073;-71
2023/12/03 04:09:10;;;;;;;5.35;2.92;;;-1.40;99.90;;;;;;5080626;28;20024;-70
2023/12/03 04:11:44;;;;;;;11.98;6.50;;;-1.50;94.70;;;;;;5080695;28;20100;-71
2023/12/03 04:14:15;;;;;;;10.57;5.85;;;-1.50;94.60;;;;;;5080481;28;20071;-71
2023/12/03 04:16:41;;;;;;;11.25;6.38;;;-1.50;99.90;;;;;;5080375;28;20051;-71
2023/12/03 04:19:06;;;;;;;12.43;6.32;;;-1.50;99.90;;;;;;5080645;28;20335;-70
2023/12/03 04:21:32;;;;;;;8.45;4.68;;;-1.50;99.90;;;;;;5081328;28;20053;-71
2023/12/03 04:23:59;;;;;;;4.95;3.03;;;;;;;;;;5081884;28;20028;-71
2023/12/03 04:26:25;;;;;;;8.65;4.97;;;-1.60;96.20;;;;;;5081758;28;20025;-71
2023/12/03 04:28:52;;;;;;;12.02;6.88;;;-1.40;99.90;;;;;;5082320;28;20035;-71
2023/12/03 04:31:23;;;;;;;12.65;6.95;;;-1.50;94.90;;;;;;5082503;28;20044;-72
2023/12/03 04:33:53;;;;;;;9.32;5.78;;;-1.50;99.90;;;;;;5082329;28;20051;-71
2023/12/03 04:36:22;;;;;;;12.32;5.80;;;-1.50;95.20;;;;;;5082435;28;20104;-72
2023/12/03 04:38:48;;;;;;;13.13;6.28;;;;;;;;;;5082537;28;20028;-71
2023/12/03 04:41:14;;;;;;;7.25;4.50;;;-1.50;99.90;;;;;;5082325;28;20611;-73
2023/12/03 04:43:41;;;;;;;5.03;3.67;;;;;;;;;;5083183;28;20024;-72
2023/12/03 04:46:07;;;;;;;8.52;4.05;;;-1.70;99.90;;;;;;5080191;28;20087;-71
2023/12/03 04:48:34;;;;;;;8.18;3.88;;;-1.70;95.10;;;;;;5080291;28;20100;-71
2023/12/03 04:51:00;;;;;;;6.25;3.60;;;-1.70;95.10;;;;;;5080279;28;20025;-70
2023/12/03 04:53:26;;;;;;;7.40;4.40;;;-1.80;99.90;;;;;;5080265;28;20032;-70
2023/12/03 04:55:53;;;;;;;11.65;6.45;;;;;;;;;;5080449;28;20028;-69
2023/12/03 04:58:18;;;;;;;15.77;7.75;;;-1.90;99.90;;;;;;5079972;28;20021;-68
2023/12/03 05:00:45;;;;;;;8.32;4.85;;;;;;;;;;5079953;28;20077;-68
2023/12/03 05:03:10;;;;;;;8.32;3.65;;;-1.80;99.90;;;;;;5080366;28;20039;-70
2023/12/03 05:05:36;;;;;;;11.63;4.78;;;-1.70;99.90;;;;;;5080259;28;20020;-69
2023/12/03 05:08:02;;;;;;;9.93;5.20;;;-1.80;99.90;;;;;;5080228;28;20021;-69
2023/12/03 05:10:29;;;;;;;13.10;6.72;;;-1.80;99.90;;;;;;5080203;28;20070;-72
2023/12/03 05:12:55;;;;;;;4.90;3.38;;;;;;;;;;5080255;28;20044;-70
2023/12/03 05:15:21;;;;;;;14.45;4.72;;;-1.80;99.90;;;;;;5080210;28;20025;-70
2023/12/03 05:17:47;;;;;;;8.00;4.75;;;-1.90;99.90;;;;;;5080062;28;20063;-71
2023/12/03 05:20:13;;;;;;;10.95;5.78;;;;;;;;;;5084199;28;20024;-72
2023/12/03 05:22:39;;;;;;;12.35;6.88;;;-1.80;99.90;;;;;;5100246;28;20121;-71
2023/12/03 05:25:06;;;;;;;11.20;6.32;;;-1.80;98.50;;;;;;5100381;28;20475;-71
2023/12/03 05:27:32;;;;;;;10.40;5.93;;;-1.80;99.90;;;;;;5103252;28;20020;-71
2023/12/03 05:29:58;;;;;;;12.70;7.35;;;;;;;;;;5104160;28;20024;-71
2023/12/03 05:32:24;;;;;;;9.07;5.32;;;;;;;;;;5103685;28;20720;-71
2023/12/03 05:34:51;;;;;;;7.07;3.72;;;;;;;;;;5104149;28;20020;-70
2023/12/03 05:37:17;;;;;;;12.05;5.65;;;;;;;;;;5104230;28;20024;-70
2023/12/03 05:39:43;;;;;;;11.38;6.30;;;;;;;;;;5103973;28;20027;-72
2023/12/03 05:42:09;;;;;;;8.23;5.13;;;;;;;;;;5103511;28;20243;-70
2023/12/03 05:44:35;;;;;;;9.90;5.55;;;;;;;;;;5103342;28;20020;-72
2023/12/03 05:47:01;;;;;;;9.40;4.10;;;;;;;;;;5103552;28;20032;-72
2023/12/03 05:49:27;;;;;;;8.98;4.18;;;-1.80;99.90;;;;;;5103470;28;20043;-70
2023/12/03 05:51:53;;;;;;;10.80;5.18;;;-1.90;96.60;;;;;;5102993;28;20219;-70
2023/12/03 05:54:19;;;;;;;6.97;3.35;;;;;;;;;;5102615;28;20328;-70
2023/12/03 05:56:46;;;;;;;6.70;3.25;;;;;;;;;;5102676;28;20024;-70
2023/12/03 05:59:12;;;;;;;6.43;3.33;;;;;;;;;;5102681;28;20031;-69
2023/12/03 06:01:38;;;;;;;9.27;4.88;;;;;;;;;;5102430;28;20216;-69
2023/12/03 06:04:07;;;;;;;8.07;4.43;;;-1.90;99.90;;;;;;5102740;28;20043;-70
2023/12/03 06:06:36;;;;;;;5.65;3.17;;;-1.90;99.80;;;;;;5103236;28;20031;-70
2023/12/03 06:09:05;;;;;;;10.13;5.25;;;-3.20;92.70;;;;;;5103132;28;20028;-70
2023/12/03 06:11:35;;;;;;;8.73;5.35;;;;;;;;;;5102754;28;20227;-70
2023/12/03 06:14:01;;;;;;;8.25;4.13;;;-2.20;93.40;;;;;;5102579;28;20035;-70
2023/12/03 06:16:27;;;;;;;7.95;4.25;;;-3.30;92.40;;;;;;5101391;28;20024;-70
2023/12/03 06:18:53;;;;;;;6.38;3.75;;;-2.20;97.20;;;;;;5102556;28;20107;-70
2023/12/03 06:21:19;;;;;;;8.93;4.68;;;-2.10;99.90;;;;;;5102515;28;20098;-69
2023/12/03 06:23:45;;;;;;;13.00;6.43;;;;;;;;;;5102708;28;20300;-71
2023/12/03 06:26:10;;;;;;;11.07;5.75;;;-2.10;99.90;;;;;;5102526;28;20323;-71
2023/12/03 06:28:36;;;;;;;13.50;6.53;;;;;;;;;;5102486;28;20056;-71
2023/12/03 06:31:06;;;;;;;7.07;3.05;;;-2.30;92.80;;;;;;5102550;28;20043;-71
2023/12/03 06:33:31;;;;;;;;;;;-2.20;93.10;;;;;;5102782;28;20047;-70
2023/12/03 06:35:57;;;;;;;13.30;6.00;;;;;;;;;;5102272;28;20111;-70
2023/12/03 06:38:23;;;;;;;13.07;6.22;;;-2.20;98.60;;;;;;5101989;28;20020;-70
2023/12/03 06:40:49;;;;;;;13.23;6.68;;;;;;;;;;5102350;28;20027;-70
2023/12/03 06:43:15;;;;;;;11.90;5.88;;;;;;;;;;5102196;28;20256;-70
2023/12/03 06:45:41;;;;;;;9.57;5.55;;;-2.30;99.20;;;;;;5095177;28;20029;-70
2023/12/03 06:48:07;;;;;;;10.45;5.82;;;;;;;;;;5082134;28;20346;-67
2023/12/03 06:50:33;;;;;;;13.73;6.30;;;;;;;;;;5081987;28;20024;-68
2023/12/03 06:53:00;;;;;;;13.20;6.38;;;-2.10;93.00;;;;;;5082009;28;20036;-68
2023/12/03 06:55:26;;;;;;;12.77;6.45;;;-2.00;99.90;;;;;;5082037;28;20228;-67
2023/12/03 06:57:52;;;;;;;10.07;5.30;;;;;;;;;;5081581;28;20050;-68
2023/12/03 07:00:18;;;;;;;9.43;5.57;;;;;;;;;;5081955;28;20428;-69
2023/12/03 07:02:44;;;;;;;13.13;6.43;;;-2.30;99.90;;;;;;5081699;28;20025;-69
2023/12/03 07:05:10;;;;;;;11.25;5.65;;;;;;;;;;5081558;28;20088;-69
2023/12/03 07:07:36;;;;;;;11.85;6.15;;;;;;;;;;5081649;28;20024;-69
2023/12/03 07:10:03;;;;;;;12.10;6.10;;;-2.00;99.90;;;;;;5081446;28;20308;-70
2023/12/03 07:12:30;;;;;;;12.98;5.70;;;-2.10;99.90;;;;;;5081586;28;20048;-69
2023/12/03 07:14:55;;;;;;;10.60;5.90;;;-2.20;97.50;;;;;;5081288;28;20027;-70
2023/12/03 07:17:21;;;;;;;16.75;6.95;;;-2.20;94.80;;;;;;5081202;28;20028;-68
2023/12/03 07:19:47;;;;;;;12.07;6.63;;;-2.10;99.90;;;;;;5081347;28;20200;-69
2023/12/03 07:22:13;;;;;;;8.30;4.72;;;-2.10;93.10;;;;;;5080936;28;20068;-68
2023/12/03 07:24:39;;;;;;;12.73;6.20;;;-2.10;93.30;;;;;;5081284;28;20229;-68
2023/12/03 07:27:05;;;;;;;11.73;6.15;;;-2.00;93.10;;;;;;5081239;28;20032;-69
2023/12/03 07:29:31;;;;;;;12.13;5.53;;;-1.80;99.90;;;;;;5080999;28;20055;-68
2023/12/03 07:31:58;;;;;;;11.32;5.75;;;;;;;;;;5080989;28;20332;-69
2023/12/03 07:34:25;;;;;;;9.43;5.05;;;;;;;;;;5081231;28;20056;-69
2023/12/03 07:36:51;;;;;;;11.68;5.55;;;;;;;;;;5086648;28;20043;-68
2023/12/03 07:39:18;;;;;;;7.90;3.92;;;-1.80;99.90;;;;;;5089738;28;20016;-68
2023/12/03 07:41:49;;;;;;;11.88;5.97;;;-1.60;92.00;;;;;;5080807;28;20036;-68
2023/12/03 07:44:15;;;;;;;11.13;5.43;;;-1.50;99.90;;;;;;5080885;28;20331;-69
2023/12/03 07:46:41;;;;;;;7.38;4.53;;;-1.50;99.50;;;;;;5080616;28;20028;-70
2023/12/03 07:49:06;;;;;;;11.57;6.15;;;-1.40;99.90;;;;;;5080332;28;20079;-72
2023/12/03 07:51:32;;;;;;;8.13;5.00;;;;;;;;;;5089173;28;20031;-69
2023/12/03 07:53:58;;;;;;;12.32;6.40;;;;;;;;;;5099706;28;20032;-71
2023/12/03 07:56:36;;;;;;;11.57;5.70;;;-1.30;91.00;;;;;;5090893;28;20382;-70
2023/12/03 07:59:02;;;;;;;7.30;3.97;;;-1.20;90.60;;;;;;5100284;28;20036;-70
2023/12/03 08:01:28;;;;;;;12.85;6.70;;;-1.00;95.70;;;;;;5099175;28;20087;-70
2023/12/03 08:03:54;;;;;;;11.38;6.78;;;;;;;;;;5100589;28;20035;-70
2023/12/03 08:06:20;;;;;;;7.22;4.57;;;;;;;;;;5099805;28;20035;-69
2023/12/03 08:08:46;;;;;;;9.95;5.43;;;-1.20;99.90;;;;;;5099879;28;20020;-70
2023/12/03 08:11:11;;;;;;;9.77;5.30;;;-1.20;99.90;;;;;;5100101;28;20027;-70
2023/12/03 08:13:39;;;;;;;9.00;5.28;;;-1.20;89.60;;;;;;5099332;28;20032;-70
2023/12/03 08:16:05;;;;;;;12.40;5.78;;;-1.20;88.60;;;;;;5099546;28;20351;-69
2023/12/03 08:18:31;;;;;;;9.43;5.80;;;-1.00;99.30;;;;;;5099364;28;20020;-70
2023/12/03 08:20:58;;;;;;;8.80;4.35;;;-1.00;99.30;;;;;;5100290;28;20056;-70
2023/12/03 08:23:23;;;;;;;9.20;4.68;;;-0.50;98.10;;;;;;5100360;28;20035;-69
2023/12/03 08:25:49;;;;;;;10.93;6.20;;;;;;;;;;5100250;28;20039;-69
2023/12/03 08:28:15;;;;;;;9.57;5.07;;;;;;;;;;5100469;28;20050;-71
2023/12/03 08:30:42;;;;;;;10.73;4.82;;;-0.90;92.20;;;;;;5100420;28;20020;-72
2023/12/03 08:33:08;;;;;;;9.45;3.95;;;;;;;;;;5100668;28;20032;-72
2023/12/03 08:35:34;;;;;;;9.85;4.90;;;-0.90;98.60;;;;;;5100675;28;20024;-71
2023/12/03 08:38:00;;;;;;;9.25;5.07;;;-0.90;92.60;;;;;;5100622;28;20020;-71
2023/12/03 08:40:26;;;;;;;10.75;4.97;;;;;;;;;;5100207;28;20397;-71
2023/12/03 08:42:52;;;;;;;10.30;5.75;;;-0.70;98.20;;;;;;5100330;28;20038;-71
2023/12/03 08:45:17;;;;;;;9.63;5.43;;;-0.60;97.70;;;;;;5098949;28;20336;-71
2023/12/03 08:47:43;;;;;;;10.38;5.90;;;;;;;;;;5100155;28;20324;-71
2023/12/03 08:50:09;;;;;;;10.40;5.50;;;-0.50;97.60;;;;;;5099934;28;20219;-71
2023/12/03 08:52:35;;;;;;;13.50;5.93;;;;;;;;;;5099955;28;20140;-71
2023/12/03 08:55:02;;;;;;;10.73;5.68;;;;;;;;;;5099762;28;20193;-71
2023/12/03 08:57:28;;;;;;;10.57;6.03;;;;;;;;;;5100145;28;20124;-71
2023/12/03 08:59:54;;;;;;;7.68;4.25;;;-0.20;95.50;;;;;;5100059;28;20042;-70
2023/12/03 09:02:20;;;;;;;9.02;5.03;;;0.00;96.60;;;;;;5102588;28;20354;-71
2023/12/03 09:04:46;;;;;;;7.60;4.15;;;;;;;;;;5097472;28;20078;-69
2023/12/03 09:07:13;;;;;;;8.93;5.22;;;0.10;92.80;;;;;;5091663;28;20020;-71
2023/12/03 09:09:42;;;;;;;7.88;5.00;;;;;;;;;;5083609;28;20036;-69
2023/12/03 09:12:09;;;;;;;10.18;6.05;;;0.50;91.20;;;;;;5083290;28;20079;-71
2023/12/03 09:14:35;;;;;;;6.05;3.70;;;;;;;;;;5083458;28;20055;-71
2023/12/03 09:17:01;;;;;;;10.40;5.63;;;;;;;;;;5083322;28;20055;-71
2023/12/03 09:19:27;;;;;;;7.97;4.38;;;;;;;;;;5083481;28;20032;-71
2023/12/03 09:21:52;;;;;;;9.93;5.97;;;1.00;94.10;;;;;;5083246;28;20087;-71
2023/12/03 09:24:18;;;;;;;7.40;4.80;;;;;;;;;;5082032;28;20033;-70
2023/12/03 09:26:45;;;;;;;3.72;2.53;;;;;;;;;;5083284;28;20051;-71
2023/12/03 09:29:11;;;;;;;7.53;4.28;;;-0.10;73.80;;;;;;5081872;28;20095;-71
2023/12/03 09:31:41;;;;;;;10.52;6.18;;;1.20;83.00;;;;;;5083036;28;20040;-70
2023/12/03 09:34:07;;;;;;;9.80;5.32;;;0.90;87.20;;;;;;5083245;28;20039;-71
2023/12/03 09:36:33;;;;;;;12.48;7.07;;;;;;;;;;5082980;28;20033;-70
2023/12/03 09:39:00;;;;;;;7.00;4.05;;;;;;;;;;5082927;28;20062;-71
2023/12/03 09:41:28;;;;;;;12.02;6.25;;;0.80;93.40;;;;;;5083209;28;20023;-71
2023/12/03 09:43:58;;;;;;;7.55;4.00;;;0.50;93.50;;;;;;5082526;28;20046;-70
2023/12/03 09:46:24;;;;;;;9.68;4.68;;;0.80;93.60;;;;;;5082976;28;20025;-71
2023/12/03 09:48:52;;;;;;;10.25;5.97;;;0.70;79.90;;;;;;5082903;28;20043;-72
2023/12/03 09:51:19;;;;;;;10.32;6.07;;;1.10;84.60;;;;;;5081650;28;20300;-72
2023/12/03 09:53:46;;;;;;;7.18;4.35;;;1.40;93.10;;;;;;5082784;28;20024;-71
2023/12/03 09:56:13;;;;;;;7.13;3.92;;;0.80;74.70;;;;;;5082776;28;20035;-71
2023/12/03 09:58:39;;;;;;;7.07;4.13;;;0.70;74.70;;;;;;5082672;28;20053;-71
2023/12/03 10:01:06;;;;;;;9.43;4.25;;;-0.40;75.60;;;;;;5082698;28;20031;-71
2023/12/03 10:03:32;;;;;;;10.32;5.40;;;;;;;;;;5082761;28;20044;-72
2023/12/03 10:05:58;;;;;;;10.73;6.18;;;;;;;;;;5082516;28;20201;-72
2023/12/03 10:08:25;;;;;;;6.50;3.35;;;0.30;93.90;;;;;;5082587;28;20020;-71
2023/12/03 10:10:58;;;;;;;9.25;5.30;;;0.50;81.10;;;;;;5082583;28;20028;-72
2023/12/03 10:13:25;;;;;;;7.45;4.68;;;0.40;93.70;;;;;;5081361;28;20036;-72
2023/12/03 10:15:51;;;;;;;8.63;4.22;;;;;;;;;;5082490;28;20025;-72
2023/12/03 10:18:18;;;;;;;9.60;6.10;;;0.30;94.20;;;;;;5081079;28;20024;-72
2023/12/03 10:20:44;;;;;;;8.18;4.20;;;0.10;94.30;;;;;;5082329;28;20074;-71
2023/12/03 10:23:18;;;;;;;9.25;5.55;;;0.10;94.60;;;;;;5082628;28;20028;-70
2023/12/03 10:25:44;;;;;;;9.57;5.60;;;-0.10;92.40;;;;;;5082512;28;20052;-71
2023/12/03 10:28:10;;;;;;;11.65;6.53;;;-0.10;94.80;;;;;;5082260;28;20031;-71
2023/12/03 10:30:39;;;;;;;8.95;4.88;;;0.10;94.90;;;;;;5081079;28;20357;-71
2023/12/03 10:33:05;;;;;;;6.95;4.20;;;0.00;94.90;;;;;;5082334;28;20040;-72
2023/12/03 10:35:36;;;;;;;11.43;6.35;;;-0.20;95.20;;;;;;5082193;28;20031;-72
2023/12/03 10:38:07;;;;;;;12.90;5.50;;;-0.10;80.30;;;;;;5082066;28;20035;-72
2023/12/03 10:40:34;;;;;;;8.30;5.22;;;;;;;;;;5082083;28;20061;-73
2023/12/03 10:43:01;;;;;;;8.88;5.05;;;0.00;95.30;;;;;;5082062;28;20375;-72
2023/12/03 10:45:28;;;;;;;15.40;6.00;;;0.00;90.00;;;;;;5080613;28;20020;-71
2023/12/03 10:47:58;;;;;;;11.73;6.18;;;1.00;81.20;;;;;;5081916;28;20197;-71
2023/12/03 10:50:27;;;;;;;9.77;5.75;;;-0.10;91.80;;;;;;5081876;28;20388;-71
2023/12/03 10:52:53;;;;;;;11.35;6.28;;;;;;;;;;5081764;28;20039;-71
2023/12/03 10:55:19;;;;;;;11.07;6.40;;;;;;;;;;5082003;28;20029;-72
2023/12/03 10:57:58;;;;;;;10.57;6.60;;;0.00;95.80;;;;;;5081807;28;20020;-72
2023/12/03 11:00:28;;;;;;;10.07;5.50;;;0.00;81.00;;;;;;5081685;28;20030;-71
2023/12/03 11:03:23;;;;;;;13.20;5.72;;;0.10;81.20;;;;;;5081632;28;20210;-72
2023/12/03 11:05:52;;;;;;;6.88;3.58;;;0.00;80.70;;;;;;5074704;28;20402;-71
2023/12/03 11:08:21;;;;;;;9.82;5.63;;;0.00;81.20;;;;;;5081137;28;20099;-71
2023/12/03 11:10:47;;;;;;;7.75;4.00;;;;;;;;;;5081161;28;20397;-71
2023/12/03 11:13:15;;;;;;;11.68;6.50;;;0.50;89.00;;;;;;5081130;28;20390;-71
2023/12/03 11:15:42;;;;;;;11.43;6.47;;;0.30;95.80;;;;;;5081439;28;20025;-71
2023/12/03 11:18:10;;;;;;;11.10;6.55;;;-0.30;80.20;;;;;;5089609;28;20028;-70
2023/12/03 11:20:37;;;;;;;5.57;3.33;;;0.20;95.30;;;;;;5087875;28;20091;-71
2023/12/03 11:23:41;;;;;;;11.07;6.20;;;-0.70;79.50;;;;;;5080904;28;20032;-71
2023/12/03 11:26:13;;;;;;;10.85;5.85;;;0.20;95.10;;;;;;5080856;28;20024;-71
2023/12/03 11:28:57;;;;;;;9.30;5.55;;;0.40;78.90;;;;;;5079502;28;20032;-71
2023/12/03 11:31:24;;;;;;;7.63;4.88;;;0.60;78.50;;;;;;5080454;28;20032;-70
2023/12/03 11:33:58;;;;;;;9.40;5.53;;;0.60;77.70;;;;;;5081677;28;20047;-71
2023/12/03 11:36:45;;;;;;;7.70;4.03;;;0.80;93.90;;;;;;5091012;28;20027;-71
2023/12/03 11:39:11;;;;;;;6.65;3.70;;;0.80;91.20;;;;;;5100910;28;20039;-71
2023/12/03 11:41:38;;;;;;;8.73;5.18;;;0.70;93.00;;;;;;5101138;28;20019;-72
2023/12/03 11:44:25;;;;;;;9.55;5.40;;;0.90;93.20;;;;;;5101038;28;20035;-71
2023/12/03 11:46:51;;;;;;;9.30;5.20;;;;;;;;;;5089299;28;20035;-71
2023/12/03 11:49:17;;;;;;;8.65;5.10;;;1.10;93.20;;;;;;5100790;28;20034;-72
2023/12/03 11:51:47;;;;;;;9.82;5.95;;;0.80;76.50;;;;;;5090078;28;20032;-71
2023/12/03 11:54:20;;;;;;;9.07;5.28;;;0.80;76.40;;;;;;5080791;28;20099;-71
2023/12/03 11:56:46;;;;;;;8.43;4.78;;;;;;;;;;5080637;28;20032;-72
2023/12/03 11:59:14;;;;;;;8.95;5.43;;;0.80;75.60;;;;;;5080540;28;20028;-71
2023/12/03 12:01:40;;;;;;;8.10;5.10;;;;;;;;;;5080440;28;20055;-71
2023/12/03 12:04:06;;;;;;;8.25;4.68;;;0.90;93.00;;;;;;5092930;28;20091;-73
2023/12/03 12:06:33;;;;;;;9.40;5.40;;;0.90;93.60;;;;;;5100544;28;20200;-71
2023/12/03 12:08:59;;;;;;;11.05;5.13;;;0.60;92.30;;;;;;5100803;28;20177;-71
2023/12/03 12:11:25;;;;;;;8.63;4.95;;;0.70;75.60;;;;;;5100438;28;20054;-71
2023/12/03 12:13:52;;;;;;;7.57;5.22;;;;;;;;;;5100272;28;20043;-72
2023/12/03 12:16:17;;;;;;;8.27;4.82;;;0.70;93.00;;;;;;5100701;28;20023;-71
2023/12/03 12:18:45;;;;;;;7.97;5.35;;;0.70;75.00;;;;;;5100318;28;20031;-72
2023/12/03 12:21:11;;;;;;;9.45;5.63;;;0.80;75.00;;;;;;5100265;28;20055;-72
2023/12/03 12:23:37;;;;;;;7.85;5.55;;;0.80;92.80;;;;;;5099055;28;20327;-73
2023/12/03 12:26:03;;;;;;;8.70;5.20;;;;;;;;;;5100425;28;20066;-72
2023/12/03 12:28:29;;;;;;;11.10;5.22;;;0.90;79.50;;;;;;5100223;28;20053;-71
2023/12/03 12:30:55;;;;;;;7.25;4.47;;;0.80;92.30;;;;;;5100430;28;20234;-72
2023/12/03 12:33:21;;;;;;;9.77;5.80;;;0.50;77.10;;;;;;5100174;28;20346;-72
2023/12/03 12:35:53;;;;;;;8.60;5.13;;;0.80;74.70;;;;;;5098371;28;20382;-72
2023/12/03 12:38:19;;;;;;;8.52;4.65;;;;;;;;;;5100200;28;20311;-71
2023/12/03 12:40:53;;;;;;;6.55;4.45;;;1.40;89.20;;;;;;5099988;28;20028;-71
2023/12/03 12:43:21;;;;;;;6.88;4.80;;;1.50;85.40;;;;;;5100130;28;20035;-72
2023/12/03 12:45:47;;;;;;;10.32;5.57;;;;;;;;;;5099009;28;20063;-72
2023/12/03 12:48:29;;;;;;;8.75;4.90;;;1.60;72.20;;;;;;5100203;28;20258;-71
2023/12/03 12:50:56;;;;;;;6.40;4.13;;;1.50;84.00;;;;;;5099986;28;20043;-71
2023/12/03 12:53:23;;;;;;;8.30;5.15;;;;;;;;;;5099906;28;20051;-71
2023/12/03 12:55:50;;;;;;;8.43;5.68;;;1.50;83.70;;;;;;5099991;28;20020;-71
2023/12/03 12:58:16;;;;;;;9.55;5.25;;;1.50;71.80;;;;;;5098756;28;20028;-72
2023/12/03 13:00:43;;;;;;;9.23;5.75;;;1.70;74.50;;;;;;5099803;28;20316;-72
2023/12/03 13:03:10;;;;;;;10.90;6.00;;;1.80;79.80;;;;;;5099959;28;20043;-71
2023/12/03 13:05:41;;;;;;;8.57;5.35;;;2.80;90.30;;;;;;5098487;28;20020;-71
2023/12/03 13:08:07;;;;;;;8.13;5.25;;;1.70;77.70;;;;;;5096815;28;20023;-71
2023/12/03 13:10:35;;;;;;;8.82;5.65;;;1.70;72.20;;;;;;5085944;28;20068;-72
2023/12/03 13:13:02;;;;;;;7.45;5.03;;;1.60;89.70;;;;;;5079803;28;20035;-71
2023/12/03 13:15:28;;;;;;;10.15;4.88;;;1.50;69.90;;;;;;5091582;28;20051;-70
2023/12/03 13:17:54;;;;;;;7.78;4.53;;;1.40;89.90;;;;;;5099743;28;20090;-71
2023/12/03 13:20:24;;;;;;;9.43;5.20;;;1.30;76.60;;;;;;5099822;28;20068;-73